sensor_id;sensor_type;location;lat;lon;timestamp;temperature;humidity
11079;DHT22;5592;49.234;7.268;2022-07-10T00:00:31;15.70;99.90
11079;DHT22;5592;49.234;7.268;2022-07-10T00:02:57;15.50;99.90
11079;DHT22;5592;49.234;7.268;2022-07-10T00:05:24;15.50;99.90
11079;DHT22;5592;49.234;7.268;2022-07-10T00:07:51;15.50;99.90
11079;DHT22;5592;49.234;7.268;2022-07-10T00:10:18;15.50;99.90
11079;DHT22;5592;49.234;7.268;2022-07-10T00:12:47;15.40;99.90
11079;DHT22;5592;49.234;7.268;2022-07-10T00:15:14;15.30;99.90
11079;DHT22;5592;49.234;7.268;2022-07-10T00:17:41;15.20;99.90
11079;DHT22;5592;49.234;7.268;2022-07-10T00:20:07;15.10;99.90
11079;DHT22;5592;49.234;7.268;2022-07-10T00:22:34;14.90;99.90
11079;DHT22;5592;49.234;7.268;2022-07-10T00:25:01;14.80;99.90
11079;DHT22;5592;49.234;7.268;2022-07-10T00:27:27;14.70;99.90
11079;DHT22;5592;49.234;7.268;2022-07-10T00:29:53;14.60;99.90
11079;DHT22;5592;49.234;7.268;2022-07-10T00:32:18;14.50;99.90
11079;DHT22;5592;49.234;7.268;2022-07-10T00:34:44;14.40;99.90
11079;DHT22;5592;49.234;7.268;2022-07-10T00:37:10;14.30;99.90
11079;DHT22;5592;49.234;7.268;2022-07-10T00:39:36;14.20;99.90
11079;DHT22;5592;49.234;7.268;2022-07-10T00:42:13;14.20;99.90
11079;DHT22;5592;49.234;7.268;2022-07-10T00:44:40;14.20;99.90
11079;DHT22;5592;49.234;7.268;2022-07-10T00:47:07;14.20;99.90
11079;DHT22;5592;49.234;7.268;2022-07-10T00:49:34;14.30;99.90
11079;DHT22;5592;49.234;7.268;2022-07-10T00:52:02;14.40;99.90
11079;DHT22;5592;49.234;7.268;2022-07-10T00:54:29;14.50;99.90
11079;DHT22;5592;49.234;7.268;2022-07-10T00:56:56;14.50;99.90
11079;DHT22;5592;49.234;7.268;2022-07-10T00:59:22;14.60;99.90
11079;DHT22;5592;49.234;7.268;2022-07-10T01:01:50;14.60;99.90
11079;DHT22;5592;49.234;7.268;2022-07-10T01:04:16;14.60;99.90
11079;DHT22;5592;49.234;7.268;2022-07-10T01:06:42;14.60;99.90
11079;DHT22;5592;49.234;7.268;2022-07-10T01:09:08;14.50;99.90
11079;DHT22;5592;49.234;7.268;2022-07-10T01:11:34;14.50;99.90
11079;DHT22;5592;49.234;7.268;2022-07-10T01:14:01;14.60;99.90
11079;DHT22;5592;49.234;7.268;2022-07-10T01:16:28;14.50;99.90
11079;DHT22;5592;49.234;7.268;2022-07-10T01:18:55;14.50;99.90
11079;DHT22;5592;49.234;7.268;2022-07-10T01:23:54;14.40;99.90
11079;DHT22;5592;49.234;7.268;2022-07-10T01:26:20;14.40;99.90
11079;DHT22;5592;49.234;7.268;2022-07-10T01:28:51;14.30;99.90
11079;DHT22;5592;49.234;7.268;2022-07-10T01:31:18;14.30;99.90
11079;DHT22;5592;49.234;7.268;2022-07-10T01:33:47;14.20;99.90
11079;DHT22;5592;49.234;7.268;2022-07-10T01:36:13;14.00;99.90
11079;DHT22;5592;49.234;7.268;2022-07-10T01:38:42;13.90;99.90
11079;DHT22;5592;49.234;7.268;2022-07-10T01:41:08;13.80;99.90
11079;DHT22;5592;49.234;7.268;2022-07-10T01:43:37;13.80;99.90
11079;DHT22;5592;49.234;7.268;2022-07-10T01:46:04;13.60;99.90
11079;DHT22;5592;49.234;7.268;2022-07-10T01:48:30;13.50;99.90
11079;DHT22;5592;49.234;7.268;2022-07-10T01:50:56;13.40;99.90
11079;DHT22;5592;49.234;7.268;2022-07-10T01:53:22;13.30;99.90
11079;DHT22;5592;49.234;7.268;2022-07-10T01:55:48;13.30;99.90
11079;DHT22;5592;49.234;7.268;2022-07-10T01:58:13;13.20;99.90
11079;DHT22;5592;49.234;7.268;2022-07-10T02:00:39;13.10;99.90
11079;DHT22;5592;49.234;7.268;2022-07-10T02:03:05;13.00;99.90
11079;DHT22;5592;49.234;7.268;2022-07-10T02:05:49;12.90;99.90
11079;DHT22;5592;49.234;7.268;2022-07-10T02:08:15;12.80;99.90
11079;DHT22;5592;49.234;7.268;2022-07-10T02:10:41;12.80;99.90
11079;DHT22;5592;49.234;7.268;2022-07-10T02:13:06;12.90;99.90
11079;DHT22;5592;49.234;7.268;2022-07-10T02:15:32;12.90;99.90
11079;DHT22;5592;49.234;7.268;2022-07-10T02:17:58;12.90;99.90
11079;DHT22;5592;49.234;7.268;2022-07-10T02:20:23;12.90;99.90
11079;DHT22;5592;49.234;7.268;2022-07-10T02:22:49;12.80;99.90
11079;DHT22;5592;49.234;7.268;2022-07-10T02:25:15;12.70;99.90
11079;DHT22;5592;49.234;7.268;2022-07-10T02:27:40;12.60;99.90
11079;DHT22;5592;49.234;7.268;2022-07-10T02:30:06;12.50;99.90
11079;DHT22;5592;49.234;7.268;2022-07-10T02:32:32;12.30;99.90
11079;DHT22;5592;49.234;7.268;2022-07-10T02:34:57;12.20;99.90
11079;DHT22;5592;49.234;7.268;2022-07-10T02:37:23;12.20;99.90
11079;DHT22;5592;49.234;7.268;2022-07-10T02:39:49;12.10;99.90
11079;DHT22;5592;49.234;7.268;2022-07-10T02:42:14;12.00;99.90
11079;DHT22;5592;49.234;7.268;2022-07-10T02:44:40;12.00;99.90
11079;DHT22;5592;49.234;7.268;2022-07-10T02:47:06;12.00;99.90
11079;DHT22;5592;49.234;7.268;2022-07-10T02:49:31;11.90;99.90
11079;DHT22;5592;49.234;7.268;2022-07-10T02:51:58;11.70;99.90
11079;DHT22;5592;49.234;7.268;2022-07-10T02:54:24;11.60;99.90
11079;DHT22;5592;49.234;7.268;2022-07-10T02:56:50;11.50;99.90
11079;DHT22;5592;49.234;7.268;2022-07-10T02:59:15;11.40;99.90
11079;DHT22;5592;49.234;7.268;2022-07-10T03:01:42;11.40;99.90
11079;DHT22;5592;49.234;7.268;2022-07-10T03:04:08;11.30;99.90
11079;DHT22;5592;49.234;7.268;2022-07-10T03:06:33;11.20;99.90
11079;DHT22;5592;49.234;7.268;2022-07-10T03:08:59;11.20;99.90
11079;DHT22;5592;49.234;7.268;2022-07-10T03:11:24;11.20;99.90
11079;DHT22;5592;49.234;7.268;2022-07-10T03:13:50;11.20;99.90
11079;DHT22;5592;49.234;7.268;2022-07-10T03:16:16;11.10;99.90
11079;DHT22;5592;49.234;7.268;2022-07-10T03:18:41;11.10;99.90
11079;DHT22;5592;49.234;7.268;2022-07-10T03:21:07;11.00;99.90
11079;DHT22;5592;49.234;7.268;2022-07-10T03:23:32;11.00;99.90
11079;DHT22;5592;49.234;7.268;2022-07-10T03:25:58;11.00;99.90
11079;DHT22;5592;49.234;7.268;2022-07-10T03:28:24;11.00;99.90
11079;DHT22;5592;49.234;7.268;2022-07-10T03:30:50;11.10;99.90
11079;DHT22;5592;49.234;7.268;2022-07-10T03:33:15;11.10;99.90
11079;DHT22;5592;49.234;7.268;2022-07-10T03:35:41;11.10;99.90
11079;DHT22;5592;49.234;7.268;2022-07-10T03:38:07;11.00;99.90
11079;DHT22;5592;49.234;7.268;2022-07-10T03:40:32;10.90;99.90
11079;DHT22;5592;49.234;7.268;2022-07-10T03:42:59;10.90;99.90
11079;DHT22;5592;49.234;7.268;2022-07-10T03:45:24;10.80;99.90
11079;DHT22;5592;49.234;7.268;2022-07-10T03:47:50;10.80;99.90
11079;DHT22;5592;49.234;7.268;2022-07-10T03:50:16;10.80;99.90
11079;DHT22;5592;49.234;7.268;2022-07-10T03:52:41;10.80;99.90
11079;DHT22;5592;49.234;7.268;2022-07-10T03:55:07;10.80;99.90
11079;DHT22;5592;49.234;7.268;2022-07-10T03:57:33;10.80;99.90
11079;DHT22;5592;49.234;7.268;2022-07-10T04:00:17;10.90;99.90
11079;DHT22;5592;49.234;7.268;2022-07-10T04:02:43;10.90;99.90
11079;DHT22;5592;49.234;7.268;2022-07-10T04:05:09;10.90;99.90
11079;DHT22;5592;49.234;7.268;2022-07-10T04:07:36;10.90;99.90
11079;DHT22;5592;49.234;7.268;2022-07-10T04:10:02;11.00;99.90
11079;DHT22;5592;49.234;7.268;2022-07-10T04:12:31;11.10;99.90
11079;DHT22;5592;49.234;7.268;2022-07-10T04:14:57;11.00;99.90
11079;DHT22;5592;49.234;7.268;2022-07-10T04:17:22;11.00;99.90
11079;DHT22;5592;49.234;7.268;2022-07-10T04:19:48;11.00;99.90
11079;DHT22;5592;49.234;7.268;2022-07-10T04:22:13;11.10;99.90
11079;DHT22;5592;49.234;7.268;2022-07-10T04:24:39;11.10;99.90
11079;DHT22;5592;49.234;7.268;2022-07-10T04:27:05;11.20;99.90
11079;DHT22;5592;49.234;7.268;2022-07-10T04:29:32;11.20;99.90
11079;DHT22;5592;49.234;7.268;2022-07-10T04:31:58;11.40;99.90
11079;DHT22;5592;49.234;7.268;2022-07-10T04:34:23;11.40;99.90
11079;DHT22;5592;49.234;7.268;2022-07-10T04:36:50;11.50;99.90
11079;DHT22;5592;49.234;7.268;2022-07-10T04:39:16;11.60;99.90
11079;DHT22;5592;49.234;7.268;2022-07-10T04:41:41;11.80;99.90
11079;DHT22;5592;49.234;7.268;2022-07-10T04:44:07;11.90;99.90
11079;DHT22;5592;49.234;7.268;2022-07-10T04:46:33;12.10;99.90
11079;DHT22;5592;49.234;7.268;2022-07-10T04:48:58;12.30;99.90
11079;DHT22;5592;49.234;7.268;2022-07-10T04:51:25;12.50;99.90
11079;DHT22;5592;49.234;7.268;2022-07-10T04:53:50;12.70;99.90
11079;DHT22;5592;49.234;7.268;2022-07-10T04:56:16;12.90;99.90
11079;DHT22;5592;49.234;7.268;2022-07-10T04:58:41;13.20;99.90
11079;DHT22;5592;49.234;7.268;2022-07-10T05:01:07;13.70;99.90
11079;DHT22;5592;49.234;7.268;2022-07-10T05:03:33;14.70;99.90
11079;DHT22;5592;49.234;7.268;2022-07-10T05:05:58;16.10;99.90
11079;DHT22;5592;49.234;7.268;2022-07-10T05:08:24;17.80;99.90
11079;DHT22;5592;49.234;7.268;2022-07-10T05:10:50;18.90;99.90
11079;DHT22;5592;49.234;7.268;2022-07-10T05:13:15;20.10;99.90
11079;DHT22;5592;49.234;7.268;2022-07-10T05:15:41;21.10;99.90
11079;DHT22;5592;49.234;7.268;2022-07-10T05:18:06;22.00;99.90
11079;DHT22;5592;49.234;7.268;2022-07-10T05:20:32;22.80;99.90
11079;DHT22;5592;49.234;7.268;2022-07-10T05:22:59;23.60;99.90
11079;DHT22;5592;49.234;7.268;2022-07-10T05:25:25;24.30;99.90
11079;DHT22;5592;49.234;7.268;2022-07-10T05:27:52;24.50;99.90
11079;DHT22;5592;49.234;7.268;2022-07-10T05:30:17;25.20;99.90
11079;DHT22;5592;49.234;7.268;2022-07-10T05:32:44;26.00;98.10
11079;DHT22;5592;49.234;7.268;2022-07-10T05:35:11;26.00;95.50
11079;DHT22;5592;49.234;7.268;2022-07-10T05:37:36;25.70;95.50
11079;DHT22;5592;49.234;7.268;2022-07-10T05:40:02;25.70;94.20
11079;DHT22;5592;49.234;7.268;2022-07-10T05:42:28;25.90;94.30
11079;DHT22;5592;49.234;7.268;2022-07-10T05:44:53;26.00;93.20
11079;DHT22;5592;49.234;7.268;2022-07-10T05:47:19;25.80;93.30
11079;DHT22;5592;49.234;7.268;2022-07-10T05:49:45;26.40;93.00
11079;DHT22;5592;49.234;7.268;2022-07-10T05:52:10;27.30;90.90
11079;DHT22;5592;49.234;7.268;2022-07-10T05:54:36;27.60;88.80
11079;DHT22;5592;49.234;7.268;2022-07-10T05:57:02;27.50;90.00
11079;DHT22;5592;49.234;7.268;2022-07-10T05:59:27;28.00;88.70
11079;DHT22;5592;49.234;7.268;2022-07-10T06:01:53;28.10;86.50
11079;DHT22;5592;49.234;7.268;2022-07-10T06:04:19;28.10;86.90
11079;DHT22;5592;49.234;7.268;2022-07-10T06:06:44;28.40;84.70
11079;DHT22;5592;49.234;7.268;2022-07-10T06:09:12;28.10;81.90
11079;DHT22;5592;49.234;7.268;2022-07-10T06:11:37;28.90;80.90
11079;DHT22;5592;49.234;7.268;2022-07-10T06:14:03;29.30;79.30
11079;DHT22;5592;49.234;7.268;2022-07-10T06:16:28;29.20;78.40
11079;DHT22;5592;49.234;7.268;2022-07-10T06:18:54;29.50;76.20
11079;DHT22;5592;49.234;7.268;2022-07-10T06:21:20;29.30;74.80
11079;DHT22;5592;49.234;7.268;2022-07-10T06:23:48;29.10;74.40
11079;DHT22;5592;49.234;7.268;2022-07-10T06:26:14;28.90;71.90
11079;DHT22;5592;49.234;7.268;2022-07-10T06:28:40;28.50;72.20
11079;DHT22;5592;49.234;7.268;2022-07-10T06:31:05;29.40;71.00
11079;DHT22;5592;49.234;7.268;2022-07-10T06:33:34;29.20;69.70
11079;DHT22;5592;49.234;7.268;2022-07-10T06:36:01;29.30;70.30
11079;DHT22;5592;49.234;7.268;2022-07-10T06:38:27;29.10;71.40
11079;DHT22;5592;49.234;7.268;2022-07-10T06:40:52;29.40;67.60
11079;DHT22;5592;49.234;7.268;2022-07-10T06:43:18;29.90;67.10
11079;DHT22;5592;49.234;7.268;2022-07-10T06:45:44;30.40;65.00
11079;DHT22;5592;49.234;7.268;2022-07-10T06:48:11;30.50;63.00
11079;DHT22;5592;49.234;7.268;2022-07-10T06:50:37;30.00;61.50
11079;DHT22;5592;49.234;7.268;2022-07-10T06:53:06;29.50;65.30
11079;DHT22;5592;49.234;7.268;2022-07-10T06:55:32;29.70;63.00
11079;DHT22;5592;49.234;7.268;2022-07-10T06:57:57;30.10;62.40
11079;DHT22;5592;49.234;7.268;2022-07-10T07:00:23;30.50;61.50
11079;DHT22;5592;49.234;7.268;2022-07-10T07:02:49;31.10;60.80
11079;DHT22;5592;49.234;7.268;2022-07-10T07:05:15;31.70;58.90
11079;DHT22;5592;49.234;7.268;2022-07-10T07:07:41;31.90;59.30
11079;DHT22;5592;49.234;7.268;2022-07-10T07:10:08;31.50;57.20
11079;DHT22;5592;49.234;7.268;2022-07-10T07:12:33;32.10;57.80
11079;DHT22;5592;49.234;7.268;2022-07-10T07:14:59;31.90;57.00
11079;DHT22;5592;49.234;7.268;2022-07-10T07:17:25;32.10;55.80
11079;DHT22;5592;49.234;7.268;2022-07-10T07:19:59;31.60;57.70
11079;DHT22;5592;49.234;7.268;2022-07-10T07:22:44;31.40;57.30
11079;DHT22;5592;49.234;7.268;2022-07-10T07:25:45;30.90;57.60
11079;DHT22;5592;49.234;7.268;2022-07-10T07:28:15;30.40;58.00
11079;DHT22;5592;49.234;7.268;2022-07-10T07:30:42;29.30;58.50
11079;DHT22;5592;49.234;7.268;2022-07-10T07:33:07;28.60;60.30
11079;DHT22;5592;49.234;7.268;2022-07-10T07:35:33;28.50;60.20
11079;DHT22;5592;49.234;7.268;2022-07-10T07:38:01;28.50;62.60
11079;DHT22;5592;49.234;7.268;2022-07-10T07:40:27;29.50;59.90
11079;DHT22;5592;49.234;7.268;2022-07-10T07:42:54;30.00;59.10
11079;DHT22;5592;49.234;7.268;2022-07-10T07:45:21;30.70;57.90
11079;DHT22;5592;49.234;7.268;2022-07-10T07:47:48;31.20;56.30
11079;DHT22;5592;49.234;7.268;2022-07-10T07:50:19;30.60;57.40
11079;DHT22;5592;49.234;7.268;2022-07-10T07:52:46;29.90;58.00
11079;DHT22;5592;49.234;7.268;2022-07-10T07:55:13;30.20;58.40
11079;DHT22;5592;49.234;7.268;2022-07-10T07:57:40;30.30;56.70
11079;DHT22;5592;49.234;7.268;2022-07-10T08:00:07;31.00;55.70
11079;DHT22;5592;49.234;7.268;2022-07-10T08:02:34;31.20;54.70
11079;DHT22;5592;49.234;7.268;2022-07-10T08:04:59;31.70;55.10
11079;DHT22;5592;49.234;7.268;2022-07-10T08:07:43;32.50;55.40
11079;DHT22;5592;49.234;7.268;2022-07-10T08:10:11;32.90;54.30
11079;DHT22;5592;49.234;7.268;2022-07-10T08:12:38;32.90;54.30
11079;DHT22;5592;49.234;7.268;2022-07-10T08:15:06;32.90;53.40
11079;DHT22;5592;49.234;7.268;2022-07-10T08:17:32;32.70;53.80
11079;DHT22;5592;49.234;7.268;2022-07-10T08:19:58;33.00;52.90
11079;DHT22;5592;49.234;7.268;2022-07-10T08:22:24;33.50;53.80
11079;DHT22;5592;49.234;7.268;2022-07-10T08:24:49;33.70;52.30
11079;DHT22;5592;49.234;7.268;2022-07-10T08:27:15;33.00;51.70
11079;DHT22;5592;49.234;7.268;2022-07-10T08:29:44;32.90;51.50
11079;DHT22;5592;49.234;7.268;2022-07-10T08:32:09;32.10;51.30
11079;DHT22;5592;49.234;7.268;2022-07-10T08:34:36;31.20;52.80
11079;DHT22;5592;49.234;7.268;2022-07-10T08:37:02;31.40;53.80
11079;DHT22;5592;49.234;7.268;2022-07-10T08:39:28;32.10;50.30
11079;DHT22;5592;49.234;7.268;2022-07-10T08:41:54;31.80;54.20
11079;DHT22;5592;49.234;7.268;2022-07-10T08:44:20;32.00;52.90
11079;DHT22;5592;49.234;7.268;2022-07-10T08:46:47;32.00;53.80
11079;DHT22;5592;49.234;7.268;2022-07-10T08:49:16;32.50;50.40
11079;DHT22;5592;49.234;7.268;2022-07-10T08:51:52;32.30;49.40
11079;DHT22;5592;49.234;7.268;2022-07-10T08:54:20;32.10;52.50
11079;DHT22;5592;49.234;7.268;2022-07-10T08:56:47;31.90;49.40
11079;DHT22;5592;49.234;7.268;2022-07-10T08:59:14;31.20;51.90
11079;DHT22;5592;49.234;7.268;2022-07-10T09:01:40;30.90;51.70
11079;DHT22;5592;49.234;7.268;2022-07-10T09:04:06;31.30;51.60
11079;DHT22;5592;49.234;7.268;2022-07-10T09:06:31;32.10;52.20
11079;DHT22;5592;49.234;7.268;2022-07-10T09:11:27;31.80;49.40
11079;DHT22;5592;49.234;7.268;2022-07-10T09:13:58;31.40;53.60
11079;DHT22;5592;49.234;7.268;2022-07-10T09:16:31;32.10;51.30
11079;DHT22;5592;49.234;7.268;2022-07-10T09:21:47;32.30;48.90
11079;DHT22;5592;49.234;7.268;2022-07-10T09:24:14;32.20;51.00
11079;DHT22;5592;49.234;7.268;2022-07-10T09:26:41;31.60;50.60
11079;DHT22;5592;49.234;7.268;2022-07-10T09:29:12;31.90;50.20
11079;DHT22;5592;49.234;7.268;2022-07-10T09:31:54;32.30;48.90
11079;DHT22;5592;49.234;7.268;2022-07-10T09:37:29;32.20;51.70
11079;DHT22;5592;49.234;7.268;2022-07-10T09:40:00;31.60;52.50
11079;DHT22;5592;49.234;7.268;2022-07-10T09:47:40;31.90;51.20
11079;DHT22;5592;49.234;7.268;2022-07-10T09:50:28;31.80;52.10
11079;DHT22;5592;49.234;7.268;2022-07-10T09:52:58;31.40;50.80
11079;DHT22;5592;49.234;7.268;2022-07-10T09:55:26;31.70;51.80
11079;DHT22;5592;49.234;7.268;2022-07-10T09:57:54;32.00;50.50
11079;DHT22;5592;49.234;7.268;2022-07-10T10:00:23;31.60;51.50
11079;DHT22;5592;49.234;7.268;2022-07-10T10:02:57;31.50;50.40
11079;DHT22;5592;49.234;7.268;2022-07-10T10:05:43;31.80;51.90
11079;DHT22;5592;49.234;7.268;2022-07-10T10:08:16;31.30;51.10
11079;DHT22;5592;49.234;7.268;2022-07-10T10:10:47;31.30;49.70
11079;DHT22;5592;49.234;7.268;2022-07-10T10:13:17;31.60;49.50
11079;DHT22;5592;49.234;7.268;2022-07-10T10:15:44;31.50;51.20
11079;DHT22;5592;49.234;7.268;2022-07-10T10:18:12;31.40;51.80
11079;DHT22;5592;49.234;7.268;2022-07-10T10:20:38;31.60;49.80
11079;DHT22;5592;49.234;7.268;2022-07-10T10:23:13;30.70;50.90
11079;DHT22;5592;49.234;7.268;2022-07-10T10:25:39;30.40;50.70
11079;DHT22;5592;49.234;7.268;2022-07-10T10:28:07;30.30;50.80
11079;DHT22;5592;49.234;7.268;2022-07-10T10:30:42;30.50;54.30
11079;DHT22;5592;49.234;7.268;2022-07-10T10:36:09;31.20;51.80
11079;DHT22;5592;49.234;7.268;2022-07-10T10:49:49;30.70;49.40
11079;DHT22;5592;49.234;7.268;2022-07-10T10:52:15;30.10;51.20
11079;DHT22;5592;49.234;7.268;2022-07-10T10:57:44;30.00;51.40
11079;DHT22;5592;49.234;7.268;2022-07-10T11:00:12;30.20;52.10
11079;DHT22;5592;49.234;7.268;2022-07-10T11:02:40;30.00;53.30
11079;DHT22;5592;49.234;7.268;2022-07-10T11:08:02;29.20;52.20
11079;DHT22;5592;49.234;7.268;2022-07-10T11:10:41;28.20;53.50
11079;DHT22;5592;49.234;7.268;2022-07-10T11:13:17;28.40;54.10
11079;DHT22;5592;49.234;7.268;2022-07-10T11:15:47;28.80;52.30
11079;DHT22;5592;49.234;7.268;2022-07-10T11:20:47;27.90;53.10
11079;DHT22;5592;49.234;7.268;2022-07-10T11:26:35;27.00;56.70
11079;DHT22;5592;49.234;7.268;2022-07-10T11:29:03;26.70;55.80
11079;DHT22;5592;49.234;7.268;2022-07-10T11:31:31;26.20;56.50
11079;DHT22;5592;49.234;7.268;2022-07-10T11:34:03;26.20;57.40
11079;DHT22;5592;49.234;7.268;2022-07-10T11:36:29;26.30;58.20
11079;DHT22;5592;49.234;7.268;2022-07-10T11:41:26;26.50;58.20
11079;DHT22;5592;49.234;7.268;2022-07-10T11:43:54;26.50;58.10
11079;DHT22;5592;49.234;7.268;2022-07-10T11:46:24;26.10;58.80
11079;DHT22;5592;49.234;7.268;2022-07-10T11:48:51;26.00;59.50
11079;DHT22;5592;49.234;7.268;2022-07-10T11:51:28;26.30;58.50
11079;DHT22;5592;49.234;7.268;2022-07-10T11:54:01;26.10;57.20
11079;DHT22;5592;49.234;7.268;2022-07-10T11:56:29;26.10;56.80
11079;DHT22;5592;49.234;7.268;2022-07-10T11:58:56;26.10;58.50
11079;DHT22;5592;49.234;7.268;2022-07-10T12:01:21;25.90;57.70
11079;DHT22;5592;49.234;7.268;2022-07-10T12:04:20;25.60;59.40
11079;DHT22;5592;49.234;7.268;2022-07-10T12:06:53;25.80;58.10
11079;DHT22;5592;49.234;7.268;2022-07-10T12:09:20;26.00;58.90
11079;DHT22;5592;49.234;7.268;2022-07-10T12:12:01;26.10;59.00
11079;DHT22;5592;49.234;7.268;2022-07-10T12:14:27;25.90;57.30
11079;DHT22;5592;49.234;7.268;2022-07-10T12:16:54;25.90;56.70
11079;DHT22;5592;49.234;7.268;2022-07-10T12:19:23;25.90;57.20
11079;DHT22;5592;49.234;7.268;2022-07-10T12:21:51;25.40;59.30
11079;DHT22;5592;49.234;7.268;2022-07-10T12:24:18;25.00;57.70
11079;DHT22;5592;49.234;7.268;2022-07-10T12:26:47;24.90;59.60
11079;DHT22;5592;49.234;7.268;2022-07-10T12:29:27;24.80;60.40
11079;DHT22;5592;49.234;7.268;2022-07-10T12:31:55;24.80;58.90
11079;DHT22;5592;49.234;7.268;2022-07-10T12:34:36;24.70;61.00
11079;DHT22;5592;49.234;7.268;2022-07-10T12:37:13;25.20;59.90
11079;DHT22;5592;49.234;7.268;2022-07-10T12:39:51;25.30;60.20
11079;DHT22;5592;49.234;7.268;2022-07-10T12:42:29;25.60;60.20
11079;DHT22;5592;49.234;7.268;2022-07-10T12:45:09;25.40;62.60
11079;DHT22;5592;49.234;7.268;2022-07-10T12:47:48;25.60;60.10
11079;DHT22;5592;49.234;7.268;2022-07-10T12:50:16;25.30;58.80
11079;DHT22;5592;49.234;7.268;2022-07-10T12:52:43;24.80;60.80
11079;DHT22;5592;49.234;7.268;2022-07-10T12:57:53;24.70;60.40
11079;DHT22;5592;49.234;7.268;2022-07-10T13:02:57;25.40;61.20
11079;DHT22;5592;49.234;7.268;2022-07-10T13:05:42;25.40;60.60
11079;DHT22;5592;49.234;7.268;2022-07-10T13:08:19;24.90;62.30
11079;DHT22;5592;49.234;7.268;2022-07-10T13:10:52;25.20;59.80
11079;DHT22;5592;49.234;7.268;2022-07-10T13:13:18;25.30;60.10
11079;DHT22;5592;49.234;7.268;2022-07-10T13:15:44;25.00;61.20
11079;DHT22;5592;49.234;7.268;2022-07-10T13:18:16;25.10;60.80
11079;DHT22;5592;49.234;7.268;2022-07-10T13:20:45;25.20;60.60
11079;DHT22;5592;49.234;7.268;2022-07-10T13:23:11;25.20;59.80
11079;DHT22;5592;49.234;7.268;2022-07-10T13:25:37;25.00;63.00
11079;DHT22;5592;49.234;7.268;2022-07-10T13:28:04;24.80;60.10
11079;DHT22;5592;49.234;7.268;2022-07-10T13:30:30;24.60;61.10
11079;DHT22;5592;49.234;7.268;2022-07-10T13:32:56;24.60;63.60
11079;DHT22;5592;49.234;7.268;2022-07-10T13:35:22;24.60;62.60
11079;DHT22;5592;49.234;7.268;2022-07-10T13:37:48;24.60;63.00
11079;DHT22;5592;49.234;7.268;2022-07-10T13:40:14;24.80;61.30
11079;DHT22;5592;49.234;7.268;2022-07-10T13:42:42;25.00;65.80
11079;DHT22;5592;49.234;7.268;2022-07-10T13:45:08;25.10;65.20
11079;DHT22;5592;49.234;7.268;2022-07-10T13:47:34;25.20;63.80
11079;DHT22;5592;49.234;7.268;2022-07-10T13:50:00;25.40;64.80
11079;DHT22;5592;49.234;7.268;2022-07-10T13:52:26;25.60;62.80
11079;DHT22;5592;49.234;7.268;2022-07-10T13:54:51;25.30;62.30
11079;DHT22;5592;49.234;7.268;2022-07-10T13:57:17;25.40;64.00
11079;DHT22;5592;49.234;7.268;2022-07-10T13:59:42;25.40;65.00
11079;DHT22;5592;49.234;7.268;2022-07-10T14:02:08;25.60;63.60
11079;DHT22;5592;49.234;7.268;2022-07-10T14:04:34;25.40;62.60
11079;DHT22;5592;49.234;7.268;2022-07-10T14:06:59;24.80;63.80
11079;DHT22;5592;49.234;7.268;2022-07-10T14:09:25;24.40;65.40
11079;DHT22;5592;49.234;7.268;2022-07-10T14:11:51;24.00;64.20
11079;DHT22;5592;49.234;7.268;2022-07-10T14:14:17;23.80;66.20
11079;DHT22;5592;49.234;7.268;2022-07-10T14:16:43;23.90;67.70
11079;DHT22;5592;49.234;7.268;2022-07-10T14:19:09;24.10;67.30
11079;DHT22;5592;49.234;7.268;2022-07-10T14:21:39;23.90;65.00
11079;DHT22;5592;49.234;7.268;2022-07-10T14:24:05;23.80;65.40
11079;DHT22;5592;49.234;7.268;2022-07-10T14:26:31;23.60;67.80
11079;DHT22;5592;49.234;7.268;2022-07-10T14:28:59;23.70;67.90
11079;DHT22;5592;49.234;7.268;2022-07-10T14:31:26;23.90;67.60
11079;DHT22;5592;49.234;7.268;2022-07-10T14:33:51;23.90;67.50
11079;DHT22;5592;49.234;7.268;2022-07-10T14:36:17;23.90;65.80
11079;DHT22;5592;49.234;7.268;2022-07-10T14:38:42;23.90;67.40
11079;DHT22;5592;49.234;7.268;2022-07-10T14:41:09;23.70;69.60
11079;DHT22;5592;49.234;7.268;2022-07-10T14:43:35;23.80;69.50
11079;DHT22;5592;49.234;7.268;2022-07-10T14:46:04;23.80;68.50
11079;DHT22;5592;49.234;7.268;2022-07-10T14:48:31;23.80;70.00
11079;DHT22;5592;49.234;7.268;2022-07-10T14:51:01;23.90;68.60
11079;DHT22;5592;49.234;7.268;2022-07-10T14:53:27;23.90;68.00
11079;DHT22;5592;49.234;7.268;2022-07-10T14:55:52;23.70;67.20
11079;DHT22;5592;49.234;7.268;2022-07-10T14:58:18;23.60;68.80
11079;DHT22;5592;49.234;7.268;2022-07-10T15:00:44;23.50;67.60
11079;DHT22;5592;49.234;7.268;2022-07-10T15:03:10;23.30;69.90
11079;DHT22;5592;49.234;7.268;2022-07-10T15:05:36;23.30;68.70
11079;DHT22;5592;49.234;7.268;2022-07-10T15:08:02;23.30;69.10
11079;DHT22;5592;49.234;7.268;2022-07-10T15:10:29;23.40;69.10
11079;DHT22;5592;49.234;7.268;2022-07-10T15:12:55;23.10;68.70
11079;DHT22;5592;49.234;7.268;2022-07-10T15:15:21;23.10;69.20
11079;DHT22;5592;49.234;7.268;2022-07-10T15:17:46;23.00;71.20
11079;DHT22;5592;49.234;7.268;2022-07-10T15:20:13;23.00;71.10
11079;DHT22;5592;49.234;7.268;2022-07-10T15:22:39;23.00;70.30
11079;DHT22;5592;49.234;7.268;2022-07-10T15:25:05;23.00;70.30
11079;DHT22;5592;49.234;7.268;2022-07-10T15:27:30;22.90;70.70
11079;DHT22;5592;49.234;7.268;2022-07-10T15:29:56;22.80;71.10
11079;DHT22;5592;49.234;7.268;2022-07-10T15:32:22;22.70;70.30
11079;DHT22;5592;49.234;7.268;2022-07-10T15:34:48;22.70;70.80
11079;DHT22;5592;49.234;7.268;2022-07-10T15:37:15;22.60;71.00
11079;DHT22;5592;49.234;7.268;2022-07-10T15:39:41;22.60;71.80
11079;DHT22;5592;49.234;7.268;2022-07-10T15:42:15;22.60;71.60
11079;DHT22;5592;49.234;7.268;2022-07-10T15:44:41;22.60;71.70
11079;DHT22;5592;49.234;7.268;2022-07-10T15:47:07;22.50;70.30
11079;DHT22;5592;49.234;7.268;2022-07-10T15:49:32;22.60;71.10
11079;DHT22;5592;49.234;7.268;2022-07-10T15:51:58;22.80;72.00
11079;DHT22;5592;49.234;7.268;2022-07-10T15:54:28;22.90;72.30
11079;DHT22;5592;49.234;7.268;2022-07-10T15:56:53;23.00;73.30
11079;DHT22;5592;49.234;7.268;2022-07-10T15:59:20;23.00;71.80
11079;DHT22;5592;49.234;7.268;2022-07-10T16:01:58;23.00;71.50
11079;DHT22;5592;49.234;7.268;2022-07-10T16:04:24;23.00;71.40
11079;DHT22;5592;49.234;7.268;2022-07-10T16:06:50;22.80;71.40
11079;DHT22;5592;49.234;7.268;2022-07-10T16:09:17;22.60;70.80
11079;DHT22;5592;49.234;7.268;2022-07-10T16:11:43;22.60;72.20
11079;DHT22;5592;49.234;7.268;2022-07-10T16:14:09;22.60;72.50
11079;DHT22;5592;49.234;7.268;2022-07-10T16:16:37;22.70;71.90
11079;DHT22;5592;49.234;7.268;2022-07-10T16:19:03;22.80;72.20
11079;DHT22;5592;49.234;7.268;2022-07-10T16:21:30;22.90;72.60
11079;DHT22;5592;49.234;7.268;2022-07-10T16:23:57;23.00;73.20
11079;DHT22;5592;49.234;7.268;2022-07-10T16:26:23;23.00;73.50
11079;DHT22;5592;49.234;7.268;2022-07-10T16:28:48;22.90;73.20
11079;DHT22;5592;49.234;7.268;2022-07-10T16:31:16;23.00;74.40
11079;DHT22;5592;49.234;7.268;2022-07-10T16:33:42;23.10;72.80
11079;DHT22;5592;49.234;7.268;2022-07-10T16:36:08;23.00;72.10